August 14, 2022

Time Code Weather Temp. Visibility Ceiling Wind METAR/SPECI
06:30
V
13 °C 10 km+ - 020° 020° 5 kt METAR EIDW 140530Z 02005KT 310V050 CAVOK 13/13 Q1009 NOSIG
06:00
V
13 °C 10 km+ - 360° 360° 5 kt METAR EIDW 140500Z 36005KT 320V020 CAVOK 13/12 Q1009 NOSIG
05:30
V
12 °C 10 km+ - 360° 360° 4 kt METAR EIDW 140430Z 36004KT 320V020 CAVOK 12/12 Q1009 NOSIG
05:00
V
13 °C 10 km+ - 020° 020° 5 kt METAR EIDW 140400Z 02005KT CAVOK 13/12 Q1010 NOSIG
04:30
V
12 °C 10 km+ - 020° 020° 5 kt METAR EIDW 140330Z 02005KT 330V060 CAVOK 12/12 Q1010 NOSIG
04:00
V
12 °C 10 km+ - Var Var 2 kt METAR EIDW 140300Z VRB02KT CAVOK 12/11 Q1010 NOSIG
03:30
V
12 °C 10 km+ - 010° 010° 3 kt METAR EIDW 140230Z 01003KT CAVOK 12/12 Q1010 NOSIG
03:00
V
13 °C 10 km+ - Var Var 3 kt METAR EIDW 140200Z VRB03KT CAVOK 13/12 Q1011 NOSIG
02:30
V
13 °C 10 km+ - 360° 360° 3 kt METAR EIDW 140130Z 36003KT CAVOK 13/12 Q1011 NOSIG
02:00
V
12 °C 10 km+ - Var Var 3 kt METAR EIDW 140100Z VRB03KT CAVOK 12/12 Q1011 NOSIG
01:30
V
12 °C 10 km+ - 010° 010° 4 kt METAR EIDW 140030Z 01004KT 330V050 CAVOK 12/11 Q1012 NOSIG
01:00
V
12 °C 10 km+ - 040° 040° 4 kt METAR EIDW 140000Z 04004KT 350V070 CAVOK 12/12 Q1012 NOSIG
00:30
V
13 °C 10 km+ - Var Var 3 kt METAR EIDW 132330Z VRB03KT CAVOK 13/12 Q1012 NOSIG
00:00
V
13 °C 10 km+ - 030° 030° 4 kt METAR EIDW 132300Z 03004KT 340V060 CAVOK 13/12 Q1012 NOSIG

August 13, 2022

Time Code Weather Temp. Visibility Ceiling Wind METAR/SPECI
23:30
V
14 °C 10 km+ - Var Var 3 kt METAR EIDW 132230Z VRB03KT CAVOK 14/12 Q1013 NOSIG
23:00
V
15 °C 10 km+ - 070° 070° 4 kt METAR EIDW 132200Z 07004KT 020V090 CAVOK 15/13 Q1013 NOSIG
22:30
V
16 °C 10 km+ - 080° 080° 4 kt METAR EIDW 132130Z 08004KT CAVOK 16/12 Q1013 NOSIG
22:00
V
16 °C 10 km+ - 080° 080° 5 kt METAR EIDW 132100Z 08005KT CAVOK 16/12 Q1013 NOSIG
21:30
V
17 °C 10 km+ - 060° 060° 5 kt METAR EIDW 132030Z 06005KT 030V090 CAVOK 17/12 Q1013 NOSIG
21:00
V
18 °C 10 km+ - 090° 090° 4 kt METAR EIDW 132000Z 09004KT CAVOK 18/13 Q1013 NOSIG
20:30
V
19 °C 10 km+ - 080° 080° 5 kt METAR EIDW 131930Z 08005KT CAVOK 19/13 Q1013 NOSIG
20:00
V
19 °C 10 km+ - 080° 080° 6 kt METAR EIDW 131900Z 08006KT 040V100 CAVOK 19/13 Q1013 NOSIG
19:30
V
20 °C 10 km+ - 070° 070° 8 kt METAR EIDW 131830Z 07008KT CAVOK 20/14 Q1013 NOSIG
19:00
V
21 °C 10 km+ - 090° 090° 7 kt METAR EIDW 131800Z 09007KT CAVOK 21/14 Q1013 NOSIG
18:30
V
21 °C 10 km+ - 080° 080° 9 kt METAR EIDW 131730Z 08009KT 040V130 CAVOK 21/14 Q1013 NOSIG
18:00
V
22 °C 10 km+ - 060° 060° 8 kt METAR EIDW 131700Z 06008KT 020V140 CAVOK 22/15 Q1014 NOSIG
17:30
V
22 °C 10 km+ - 050° 050° 9 kt METAR EIDW 131630Z 05009KT 020V100 9999 FEW020 22/15 Q1014 NOSIG
17:00
V
22 °C 10 km+ - 060° 060° 8 kt METAR EIDW 131600Z 06008KT 030V090 9999 FEW020 22/15 Q1014 NOSIG
16:30
V
23 °C 10 km+ - 050° 050° 9 kt METAR EIDW 131530Z 05009KT 340V090 9999 FEW020 23/15 Q1014 NOSIG
16:00
V
24 °C 10 km+ - 060° 060° 9 kt METAR EIDW 131500Z 06009KT 030V090 9999 FEW020 24/15 Q1014 NOSIG
15:30
V
24 °C 10 km+ - 060° 060° 9 kt METAR EIDW 131430Z 06009KT 030V100 9999 FEW018 24/15 Q1015 NOSIG
15:00
V
24 °C 10 km+ - 050° 050° 10 kt METAR EIDW 131400Z 05010KT 020V080 9999 FEW018 24/15 Q1015 NOSIG
14:30
V
24 °C 10 km+ - 060° 060° 9 kt METAR EIDW 131330Z 06009KT 010V080 CAVOK 24/15 Q1015 NOSIG
14:00
V
24 °C 10 km+ - 060° 060° 10 kt METAR EIDW 131300Z 06010KT 020V120 CAVOK 24/14 Q1015 NOSIG
13:30
V
24 °C 10 km+ - 050° 050° 9 - 19 kt METAR EIDW 131230Z 05009G19KT 020V120 CAVOK 24/15 Q1015 NOSIG
13:00
V
23 °C 10 km+ - 060° 060° 10 kt METAR EIDW 131200Z 06010KT 020V080 CAVOK 23/15 Q1015 NOSIG
12:30
V
23 °C 10 km+ - 050° 050° 11 kt METAR EIDW 131130Z 05011KT 020V100 CAVOK 23/15 Q1016 NOSIG
12:00
V
23 °C 10 km+ - 050° 050° 9 kt METAR EIDW 131100Z 05009KT 010V080 CAVOK 23/15 Q1016 NOSIG
11:30
V
22 °C 10 km+ - 060° 060° 9 kt METAR EIDW 131030Z 06009KT 350V110 CAVOK 22/15 Q1016 NOSIG
11:00
V
22 °C 10 km+ - 060° 060° 10 kt METAR EIDW 131000Z 06010KT 010V090 CAVOK 22/15 Q1016 NOSIG
10:30
V
22 °C 10 km+ - 050° 050° 10 kt METAR EIDW 130930Z 05010KT CAVOK 22/15 Q1016 NOSIG
10:00
V
21 °C 10 km+ - 060° 060° 10 kt METAR EIDW 130900Z 06010KT 240V210 CAVOK 21/15 Q1016 NOSIG
09:30
V
20 °C 10 km+ - 060° 060° 9 kt METAR EIDW 130830Z 06009KT CAVOK 20/15 Q1016 NOSIG
09:00
V
20 °C 10 km+ - 040° 040° 8 kt METAR EIDW 130800Z 04008KT 010V070 CAVOK 20/15 Q1016 NOSIG
08:30
V
19 °C 10 km+ - 050° 050° 8 kt METAR EIDW 130730Z 05008KT 010V080 CAVOK 19/15 Q1016 NOSIG
08:00
V
18 °C 10 km+ - 040° 040° 7 kt METAR EIDW 130700Z 04007KT 010V070 CAVOK 18/15 Q1016 NOSIG
07:30
V
17 °C 10 km+ - 030° 030° 8 kt METAR EIDW 130630Z 03008KT 360V080 CAVOK 17/14 Q1016 NOSIG
07:00
V
16 °C 10 km+ - 030° 030° 7 kt METAR EIDW 130600Z 03007KT 360V080 CAVOK 16/14 Q1016 NOSIG
06:30
V
16 °C 10 km+ - 030° 030° 5 kt METAR EIDW 130530Z 03005KT 290V080 CAVOK 16/13 Q1016 NOSIG
06:00
V
15 °C 10 km+ - 020° 020° 4 kt METAR EIDW 130500Z 02004KT 340V050 CAVOK 15/13 Q1016 NOSIG
05:30
V
14 °C 10 km+ - 330° 330° 4 kt METAR EIDW 130430Z 33004KT CAVOK 14/12 Q1016 NOSIG
05:00
V
10 °C 10 km+ - 350° 350° 6 kt METAR EIDW 130400Z 35006KT 300V020 CAVOK 10/09 Q1016 NOSIG
04:30
V
12 °C 10 km+ - Var Var 3 kt METAR EIDW 130330Z VRB03KT CAVOK 12/10 Q1017 NOSIG
04:00
V
11 °C 10 km+ - Var Var 3 kt METAR EIDW 130300Z VRB03KT CAVOK 11/10 Q1017 NOSIG
03:30
V
11 °C 10 km+ - Var Var 2 kt METAR EIDW 130230Z VRB02KT CAVOK 11/09 Q1017 NOSIG
03:00
V
11 °C 10 km+ - Var Var 2 kt METAR EIDW 130200Z VRB02KT CAVOK 11/10 Q1017 NOSIG
02:30
V
12 °C 10 km+ - Var Var 2 kt METAR EIDW 130130Z VRB02KT CAVOK 12/10 Q1018 NOSIG
02:00
V
11 °C 10 km+ - Var Var 2 kt METAR EIDW 130100Z VRB02KT CAVOK 11/10 Q1018 NOSIG
01:30
V
12 °C 10 km+ - Var 000° 0 kt METAR EIDW 130030Z 00000KT CAVOK 12/10 Q1018 NOSIG
01:00
V
12 °C 10 km+ - Var Var 3 kt METAR EIDW 130000Z VRB03KT CAVOK 12/10 Q1018 NOSIG
00:30
V
12 °C 10 km+ - 050° 050° 4 kt METAR EIDW 122330Z 05004KT 350V090 CAVOK 12/10 Q1018 NOSIG
00:00
V
13 °C 10 km+ - 050° 050° 5 kt METAR EIDW 122300Z 05005KT 020V080 CAVOK 13/10 Q1018 NOSIG

August 12, 2022

Time Code Weather Temp. Visibility Ceiling Wind METAR/SPECI
23:30
V
13 °C 10 km+ - 070° 070° 4 kt METAR EIDW 122230Z 07004KT 030V100 CAVOK 13/10 Q1018 NOSIG
23:00
V
13 °C 10 km+ - 070° 070° 4 kt METAR EIDW 122200Z 07004KT 020V090 CAVOK 13/09 Q1018 NOSIG
22:30
V
14 °C 10 km+ - 040° 040° 5 kt METAR EIDW 122130Z 04005KT 350V070 CAVOK 14/10 Q1018 NOSIG
22:00
V
14 °C 10 km+ - 020° 020° 5 kt METAR EIDW 122100Z 02005KT 340V070 CAVOK 14/10 Q1018 NOSIG
21:30
V
17 °C 10 km+ - 030° 030° 5 kt METAR EIDW 122030Z 03005KT 340V060 CAVOK 17/11 Q1018 NOSIG
21:00
V
18 °C 10 km+ - 040° 040° 4 kt METAR EIDW 122000Z 04004KT 340V110 CAVOK 18/11 Q1018 NOSIG
20:30
V
19 °C 10 km+ - 060° 060° 6 kt METAR EIDW 121930Z 06006KT 340V170 CAVOK 19/11 Q1018 NOSIG
20:00
V
20 °C 10 km+ - 060° 060° 8 kt METAR EIDW 121900Z 06008KT 030V090 CAVOK 20/11 Q1018 NOSIG
19:30
V
21 °C 10 km+ - 060° 060° 8 kt METAR EIDW 121830Z 06008KT 020V110 CAVOK 21/12 Q1018 NOSIG
19:00
V
23 °C 10 km+ - 060° 060° 8 kt METAR EIDW 121800Z 06008KT 010V080 CAVOK 23/13 Q1018 NOSIG
18:30
V
23 °C 10 km+ - 050° 050° 7 kt METAR EIDW 121730Z 05007KT 010V080 CAVOK 23/12 Q1018 NOSIG
18:00
V
23 °C 10 km+ - 060° 060° 7 kt METAR EIDW 121700Z 06007KT 030V090 CAVOK 23/13 Q1019 NOSIG
17:30
V
24 °C 10 km+ - 060° 060° 9 kt METAR EIDW 121630Z 06009KT 020V090 CAVOK 24/12 Q1019 NOSIG
17:00
V
24 °C 10 km+ - 050° 050° 10 kt METAR EIDW 121600Z 05010KT 020V110 CAVOK 24/12 Q1019 NOSIG
16:30
V
25 °C 10 km+ - 070° 070° 10 kt METAR EIDW 121530Z 07010KT 030V090 CAVOK 25/12 Q1019 NOSIG
16:00
V
25 °C 10 km+ - 060° 060° 9 kt METAR EIDW 121500Z 06009KT 020V080 CAVOK 25/12 Q1019 NOSIG
15:30
V
24 °C 10 km+ - 060° 060° 9 kt METAR EIDW 121430Z 06009KT 030V100 CAVOK 24/12 Q1019 NOSIG
15:00
V
24 °C 10 km+ - 070° 070° 8 kt METAR EIDW 121400Z 07008KT 040V110 CAVOK 24/12 Q1020 NOSIG
14:30
V
25 °C 10 km+ - 060° 060° 8 kt METAR EIDW 121330Z 06008KT 360V080 CAVOK 25/12 Q1020 NOSIG
14:00
V
24 °C 10 km+ - 050° 050° 8 kt METAR EIDW 121300Z 05008KT 020V110 CAVOK 24/11 Q1020 NOSIG
13:30
V
24 °C 10 km+ - 060° 060° 9 kt METAR EIDW 121230Z 06009KT 030V100 CAVOK 24/12 Q1020 NOSIG
13:00
V
24 °C 10 km+ - 070° 070° 10 kt METAR EIDW 121200Z 07010KT 030V120 CAVOK 24/12 Q1020 NOSIG
12:30
V
24 °C 10 km+ - 070° 070° 10 kt METAR EIDW 121130Z 07010KT 040V100 CAVOK 24/12 Q1020 NOSIG
12:00
V
24 °C 10 km+ - 050° 050° 11 kt METAR EIDW 121100Z 05011KT CAVOK 24/12 Q1021 NOSIG
11:30
V
23 °C 10 km+ - 050° 050° 10 kt METAR EIDW 121030Z 05010KT 010V080 CAVOK 23/11 Q1021 NOSIG
11:00
V
23 °C 10 km+ - 050° 050° 9 - 19 kt METAR EIDW 121000Z 05009G19KT 020V110 CAVOK 23/12 Q1021 NOSIG
10:30
V
22 °C 10 km+ - 050° 050° 8 kt METAR EIDW 120930Z 05008KT 010V090 CAVOK 22/12 Q1021 NOSIG
10:00
V
21 °C 10 km+ - 050° 050° 8 kt METAR EIDW 120900Z 05008KT 010V110 CAVOK 21/14 Q1021 NOSIG
09:30
V
20 °C 10 km+ - 030° 030° 6 kt METAR EIDW 120830Z 03006KT 360V150 CAVOK 20/13 Q1021 NOSIG
09:00
V
19 °C 10 km+ - 030° 030° 5 kt METAR EIDW 120800Z 03005KT 350V100 CAVOK 19/14 Q1021 NOSIG
08:30
V
18 °C 10 km+ - 030° 030° 5 kt METAR EIDW 120730Z 03005KT 340V070 CAVOK 18/14 Q1021 NOSIG
08:00
V
16 °C 10 km+ - 360° 360° 4 kt METAR EIDW 120700Z 36004KT 310V060 9999 FEW048 16/15 Q1021 NOSIG
07:30
V
15 °C 10 km+ - 020° 020° 5 kt METAR EIDW 120630Z 02005KT 330V060 9999 FEW048 15/15 Q1021 NOSIG
07:00
V
13 °C 10 km+ - 010° 010° 5 kt METAR EIDW 120600Z 01005KT 300V050 9999 FEW048 13/13 Q1021 NOSIG
06:30
V
12 °C 10 km+ - 010° 010° 5 kt METAR EIDW 120530Z 01005KT 320V040 9999 FEW048 12/12 Q1021 NOSIG
06:00
V
10 °C 10 km+ - 360° 360° 4 kt METAR EIDW 120500Z 36004KT 320V050 9999 FEW048 10/10 Q1021 NOSIG
05:30
V
10 °C 10 km+ - Var Var 3 kt METAR EIDW 120430Z VRB03KT CAVOK 10/10 Q1021 NOSIG
05:00
V
11 °C 10 km+ - 020° 020° 4 kt METAR EIDW 120400Z 02004KT 320V060 CAVOK 11/10 Q1021 NOSIG
04:30
V
11 °C 10 km+ - 040° 040° 5 kt METAR EIDW 120330Z 04005KT 020V080 CAVOK 11/11 Q1022 NOSIG
04:00
V
12 °C 10 km+ - 030° 030° 4 kt METAR EIDW 120300Z 03004KT CAVOK 12/12 Q1022 NOSIG
03:30
V
12 °C 10 km+ - Var Var 3 kt METAR EIDW 120230Z VRB03KT CAVOK 12/11 Q1022 NOSIG
Older data

We and third parties follow your internet behavior on our website with cookies. If you continue, we assume you agree with our cookie policy. Learn more